Time;durP1;ratioP1;P1;durP2;ratioP2;P2;SDS_P1;SDS_P2;PMS_P1;PMS_P2;Temp;Humidity;BMP_temperature;BMP_pressure;BME280_temperature;BME280_humidity;BME280_pressure;Samples;Min_cycle;Max_cycle;Signal;HPM_P1;HPM_P2
2022/10/24 00:02:19;;;;;;;7.82;3.10;;;14.50;99.90;;;;;;5014356;28;20069;-81
2022/10/24 00:04:45;;;;;;;5.65;2.72;;;14.50;99.90;;;;;;5018847;28;20033;-81
2022/10/24 00:07:11;;;;;;;3.85;2.08;;;14.50;99.90;;;;;;5008630;28;20067;-81
2022/10/24 00:09:37;;;;;;;4.50;2.10;;;14.50;99.90;;;;;;5014680;28;20099;-80
2022/10/24 00:12:04;;;;;;;6.40;2.05;;;14.50;99.90;;;;;;5007343;28;20109;-81
2022/10/24 00:14:31;;;;;;;6.20;2.55;;;14.50;99.90;;;;;;4986290;28;20102;-81
2022/10/24 00:16:56;;;;;;;6.35;2.15;;;14.40;99.90;;;;;;4997861;28;20366;-81
2022/10/24 00:19:22;;;;;;;5.70;2.13;;;14.50;99.90;;;;;;4996285;28;20052;-81
2022/10/24 00:21:48;;;;;;;4.95;2.20;;;14.50;99.90;;;;;;4995179;28;20072;-80
2022/10/24 00:24:14;;;;;;;5.05;2.05;;;14.50;99.90;;;;;;4995739;28;20030;-81
2022/10/24 00:26:40;;;;;;;6.28;1.75;;;14.40;99.90;;;;;;5010660;28;20040;-81
2022/10/24 00:29:07;;;;;;;5.85;2.45;;;14.50;99.90;;;;;;4983958;28;20088;-81
2022/10/24 00:31:32;;;;;;;5.82;1.95;;;14.50;99.90;;;;;;5008142;28;20029;-81
2022/10/24 00:33:59;;;;;;;4.28;2.13;;;14.50;99.90;;;;;;4999579;28;20046;-80
2022/10/24 00:36:25;;;;;;;4.68;2.20;;;14.50;99.90;;;;;;5013333;28;20064;-81
2022/10/24 00:38:52;;;;;;;7.90;2.53;;;14.60;99.90;;;;;;4987179;28;20044;-79
2022/10/24 00:41:22;;;;;;;7.30;2.13;;;14.60;99.90;;;;;;5007649;28;20151;-80
2022/10/24 00:43:48;;;;;;;6.72;2.20;;;14.60;99.90;;;;;;5008362;28;20033;-81
2022/10/24 00:46:16;;;;;;;8.55;2.00;;;14.60;99.90;;;;;;4998418;28;20040;-80
2022/10/24 00:48:52;;;;;;;6.78;2.28;;;14.60;99.90;;;;;;5006092;28;20477;-79
2022/10/24 00:51:24;;;;;;;7.40;2.90;;;14.70;99.90;;;;;;5003089;28;20033;-80
2022/10/24 00:54:12;;;;;;;7.25;2.20;;;14.70;99.90;;;;;;5005231;28;20450;-80
2022/10/24 00:56:48;;;;;;;6.35;1.80;;;14.70;99.90;;;;;;4998363;28;20053;-81
2022/10/24 00:59:16;;;;;;;6.07;1.75;;;14.70;99.90;;;;;;5013688;28;20033;-81
2022/10/24 01:01:43;;;;;;;4.13;1.80;;;14.70;99.90;;;;;;4997871;28;20029;-80
2022/10/24 01:04:12;;;;;;;9.05;2.85;;;14.70;99.90;;;;;;5017561;28;20494;-80
2022/10/24 01:06:49;;;;;;;6.55;1.90;;;14.70;99.90;;;;;;5018712;28;20157;-81
2022/10/24 01:09:43;;;;;;;5.68;1.65;;;14.80;99.90;;;;;;5005508;28;20092;-81
2022/10/24 01:12:24;;;;;;;3.92;1.45;;;14.70;99.90;;;;;;5014376;28;20513;-80
2022/10/24 01:14:54;;;;;;;7.30;2.08;;;14.70;99.90;;;;;;5004594;28;20044;-81
2022/10/24 01:17:31;;;;;;;4.70;2.22;;;14.70;99.90;;;;;;4994640;28;20112;-80
2022/10/24 01:20:07;;;;;;;5.55;1.77;;;14.70;99.90;;;;;;5008317;28;20048;-80
2022/10/24 01:22:46;;;;;;;5.65;1.77;;;14.70;99.90;;;;;;4998273;28;20034;-81
2022/10/24 01:25:32;;;;;;;5.05;2.20;;;14.70;99.90;;;;;;4987439;28;20045;-80
2022/10/24 01:28:19;;;;;;;8.27;2.40;;;14.70;99.90;;;;;;4996689;28;20042;-80
2022/10/24 01:30:51;;;;;;;5.75;2.22;;;14.80;99.90;;;;;;4993026;28;20431;-79
2022/10/24 01:33:24;;;;;;;6.20;1.85;;;14.80;99.90;;;;;;4996116;28;20041;-81
2022/10/24 01:35:55;;;;;;;7.53;1.95;;;14.80;99.90;;;;;;4996089;28;20095;-80
2022/10/24 01:38:46;;;;;;;8.00;2.35;;;14.80;99.90;;;;;;5003655;28;20040;-81
2022/10/24 01:41:20;;;;;;;7.25;2.10;;;14.90;99.90;;;;;;5001443;28;22393;-80
2022/10/24 01:44:01;;;;;;;10.02;2.50;;;14.90;99.90;;;;;;4994680;28;20459;-80
2022/10/24 01:46:52;;;;;;;5.32;2.08;;;14.90;99.90;;;;;;5010873;28;20033;-81
2022/10/24 01:49:22;;;;;;;5.30;2.40;;;15.00;99.90;;;;;;4997647;28;20083;-80
2022/10/24 01:51:52;;;;;;;5.60;2.50;;;15.00;99.90;;;;;;5002093;28;20029;-81
2022/10/24 01:54:18;;;;;;;9.00;2.67;;;15.00;99.90;;;;;;4999046;28;20048;-81
2022/10/24 01:56:44;;;;;;;7.72;2.22;;;15.00;99.90;;;;;;4981545;28;20041;-79
2022/10/24 01:59:27;;;;;;;4.93;2.10;;;15.00;99.90;;;;;;4984281;28;20051;-81
2022/10/24 02:01:58;;;;;;;6.13;2.15;;;15.10;99.90;;;;;;5015043;28;20044;-81
2022/10/24 02:04:26;;;;;;;7.72;2.15;;;15.10;99.90;;;;;;5000472;28;20043;-81
2022/10/24 02:06:55;;;;;;;9.48;2.85;;;15.10;99.90;;;;;;5011620;28;20436;-81
2022/10/24 02:09:23;;;;;;;5.80;2.33;;;15.10;99.90;;;;;;5013610;28;20030;-81
2022/10/24 02:11:51;;;;;;;6.93;2.67;;;15.10;99.90;;;;;;4982023;28;20030;-81
2022/10/24 02:14:24;;;;;;;9.63;3.13;;;15.10;99.90;;;;;;5003472;28;20047;-81
2022/10/24 02:16:50;;;;;;;8.13;2.28;;;15.10;99.90;;;;;;5010499;28;20041;-81
2022/10/24 02:19:17;;;;;;;9.23;2.60;;;15.20;99.90;;;;;;5011214;28;20045;-81
2022/10/24 02:21:42;;;;;;;6.03;2.33;;;15.20;99.90;;;;;;5012611;28;20041;-81
2022/10/24 02:24:41;;;;;;;10.02;3.00;;;15.20;99.90;;;;;;4999694;28;20529;-79
2022/10/24 02:27:14;;;;;;;8.77;2.20;;;15.20;99.90;;;;;;4975532;28;20049;-80
2022/10/24 02:29:54;;;;;;;9.55;3.00;;;15.00;99.90;;;;;;5014149;28;20176;-80
2022/10/24 02:32:32;;;;;;;7.05;2.80;;;15.30;99.90;;;;;;4995392;28;20029;-81
2022/10/24 02:35:00;;;;;;;6.75;2.53;;;15.30;99.90;;;;;;5009033;28;20046;-80
2022/10/24 02:37:29;;;;;;;7.68;2.75;;;15.30;99.90;;;;;;5033523;22;20047;-58
2022/10/24 02:39:56;;;;;;;7.75;2.88;;;15.30;99.90;;;;;;5053690;28;20048;-58
2022/10/24 02:42:25;;;;;;;7.97;3.10;;;15.20;99.90;;;;;;5035997;28;20743;-59
2022/10/24 02:44:51;;;;;;;6.38;2.70;;;15.20;99.90;;;;;;5048233;28;20040;-59
2022/10/24 02:47:20;;;;;;;9.52;2.78;;;15.20;99.90;;;;;;5050232;28;20140;-58
2022/10/24 02:49:45;;;;;;;6.53;2.80;;;15.20;99.90;;;;;;5042344;28;20487;-58
2022/10/24 02:52:11;;;;;;;8.63;2.97;;;15.20;99.90;;;;;;5038592;28;20043;-58
2022/10/24 02:54:37;;;;;;;8.10;3.10;;;15.20;99.90;;;;;;5047437;28;20044;-58
2022/10/24 02:57:03;;;;;;;10.85;2.95;;;15.20;99.90;;;;;;5038988;28;20085;-58
2022/10/24 02:59:29;;;;;;;9.30;3.00;;;15.20;99.90;;;;;;5048775;28;20043;-59
2022/10/24 03:01:55;;;;;;;9.50;3.05;;;15.20;99.90;;;;;;5050551;28;20036;-59
2022/10/24 03:04:21;;;;;;;8.40;2.70;;;15.20;99.90;;;;;;5054554;28;20033;-59
2022/10/24 03:06:47;;;;;;;6.93;2.75;;;15.20;99.90;;;;;;5034811;28;20044;-59
2022/10/24 03:09:13;;;;;;;9.02;3.03;;;15.20;99.90;;;;;;5049254;28;20391;-59
2022/10/24 03:11:39;;;;;;;8.02;2.67;;;15.20;99.90;;;;;;5042887;28;20037;-59
2022/10/24 03:14:05;;;;;;;8.52;3.10;;;15.20;99.90;;;;;;5061871;28;20128;-59
2022/10/24 03:16:31;;;;;;;10.60;3.08;;;15.20;99.90;;;;;;5060455;28;20033;-59
2022/10/24 03:18:56;;;;;;;6.82;2.38;;;15.20;99.90;;;;;;5044827;28;20041;-59
2022/10/24 03:21:22;;;;;;;9.75;2.47;;;15.20;99.90;;;;;;5027393;28;20044;-59
2022/10/24 03:23:48;;;;;;;7.97;2.70;;;15.20;99.90;;;;;;5019110;28;21072;-58
2022/10/24 03:26:14;;;;;;;9.77;2.50;;;15.20;99.90;;;;;;5019226;28;20060;-59
2022/10/24 03:28:40;;;;;;;9.95;2.45;;;15.20;99.90;;;;;;5016673;28;20045;-58
2022/10/24 03:31:06;;;;;;;8.57;2.50;;;15.20;99.90;;;;;;5020995;28;20047;-58
2022/10/24 03:33:32;;;;;;;6.78;2.35;;;15.20;99.90;;;;;;5013304;28;20549;-58
2022/10/24 03:35:58;;;;;;;10.00;3.35;;;15.20;99.90;;;;;;5037410;28;20068;-58
2022/10/24 03:38:24;;;;;;;9.85;3.08;;;15.20;99.90;;;;;;5024608;28;20128;-59
2022/10/24 03:40:50;;;;;;;8.25;2.70;;;15.20;99.90;;;;;;5022417;28;20045;-59
2022/10/24 03:43:16;;;;;;;6.40;2.20;;;15.20;99.90;;;;;;5036064;28;20044;-59
2022/10/24 03:45:42;;;;;;;6.57;2.17;;;15.30;99.90;;;;;;5063556;28;20037;-58
2022/10/24 03:48:08;;;;;;;7.28;2.38;;;15.20;99.90;;;;;;5053644;28;20044;-58
2022/10/24 03:50:34;;;;;;;8.50;2.20;;;15.20;99.90;;;;;;5042423;28;20040;-59
2022/10/24 03:53:00;;;;;;;5.32;2.15;;;15.30;99.90;;;;;;5059792;28;20033;-58
2022/10/24 03:55:27;;;;;;;7.25;2.25;;;15.30;99.90;;;;;;5064432;28;20040;-58
2022/10/24 03:57:53;;;;;;;9.05;2.88;;;15.30;99.90;;;;;;5052070;28;20043;-59
2022/10/24 04:00:19;;;;;;;10.15;2.15;;;15.30;99.90;;;;;;5064735;28;20033;-59
2022/10/24 04:02:46;;;;;;;8.95;2.13;;;15.30;99.90;;;;;;5062666;28;20116;-59
2022/10/24 04:05:12;;;;;;;7.72;2.25;;;15.30;99.90;;;;;;5046073;28;20173;-59
2022/10/24 04:07:38;;;;;;;7.97;2.58;;;15.20;99.90;;;;;;5062741;28;20040;-59
2022/10/24 04:10:05;;;;;;;9.85;2.63;;;15.20;99.90;;;;;;5035739;28;20036;-59
2022/10/24 04:12:31;;;;;;;5.88;2.25;;;15.20;99.90;;;;;;5047995;28;20041;-59
2022/10/24 04:14:57;;;;;;;7.22;2.20;;;15.20;99.90;;;;;;5056228;28;20457;-59
2022/10/24 04:17:23;;;;;;;5.18;1.90;;;15.10;99.90;;;;;;5041352;28;20306;-59
2022/10/24 04:19:49;;;;;;;10.55;2.90;;;15.10;99.90;;;;;;5057442;28;20037;-59
2022/10/24 04:22:14;;;;;;;6.50;2.15;;;15.10;99.90;;;;;;5056181;28;20047;-59
2022/10/24 04:24:40;;;;;;;6.03;2.17;;;15.10;99.90;;;;;;5033498;28;20060;-59
2022/10/24 04:27:07;;;;;;;7.95;1.90;;;15.00;99.90;;;;;;5064342;28;20115;-59
2022/10/24 04:29:33;;;;;;;7.10;2.67;;;15.00;99.90;;;;;;5048629;28;20486;-59
2022/10/24 04:31:59;;;;;;;5.28;2.00;;;15.00;99.90;;;;;;5056548;28;20790;-59
2022/10/24 04:34:25;;;;;;;9.15;2.47;;;15.00;99.90;;;;;;5044152;28;20040;-59
2022/10/24 04:36:50;;;;;;;8.02;2.08;;;14.90;99.90;;;;;;5068038;28;20037;-58
2022/10/24 04:39:16;;;;;;;10.23;2.70;;;14.90;99.90;;;;;;5064597;28;20395;-59
2022/10/24 04:41:42;;;;;;;6.70;2.45;;;14.90;99.90;;;;;;5060922;28;20040;-58
2022/10/24 04:44:07;;;;;;;6.90;2.25;;;14.90;99.90;;;;;;5050144;28;20064;-59
2022/10/24 04:46:33;;;;;;;10.23;2.00;;;14.90;99.90;;;;;;5061264;28;20042;-59
2022/10/24 04:48:59;;;;;;;6.63;2.00;;;14.80;99.90;;;;;;5032985;28;20037;-59
2022/10/24 04:51:25;;;;;;;6.70;1.83;;;14.80;99.90;;;;;;5053250;28;21948;-59
2022/10/24 04:53:51;;;;;;;6.07;2.15;;;14.80;99.90;;;;;;5049882;28;20434;-59
2022/10/24 04:56:17;;;;;;;7.38;2.03;;;14.80;99.90;;;;;;5052318;28;20036;-59
2022/10/24 04:58:43;;;;;;;7.95;2.95;;;14.80;99.90;;;;;;5048350;28;20589;-59
2022/10/24 05:01:09;;;;;;;5.13;1.73;;;14.80;99.90;;;;;;5026271;28;20049;-59
2022/10/24 05:03:34;;;;;;;10.75;2.63;;;14.70;99.90;;;;;;5062570;28;20131;-59
2022/10/24 05:06:00;;;;;;;6.07;1.95;;;14.70;99.90;;;;;;5046619;28;20029;-58
2022/10/24 05:08:27;;;;;;;6.85;2.00;;;14.70;99.90;;;;;;5045967;28;20496;-58
2022/10/24 05:10:52;;;;;;;6.97;2.13;;;14.70;99.90;;;;;;5030417;28;20033;-59
2022/10/24 05:13:18;;;;;;;7.28;2.45;;;14.70;99.90;;;;;;5066028;28;20648;-59
2022/10/24 05:15:44;;;;;;;6.93;1.80;;;14.70;99.90;;;;;;5038330;28;20041;-59
2022/10/24 05:18:10;;;;;;;6.18;1.80;;;14.70;99.90;;;;;;5045320;28;20123;-59
2022/10/24 05:20:36;;;;;;;9.60;1.95;;;14.70;99.90;;;;;;5045631;28;20044;-59
2022/10/24 05:23:02;;;;;;;3.88;1.77;;;14.80;99.90;;;;;;5056204;28;20044;-59
2022/10/24 05:25:27;;;;;;;6.82;1.70;;;14.80;99.90;;;;;;5050929;28;20032;-58
2022/10/24 05:27:54;;;;;;;4.80;1.40;;;14.80;99.90;;;;;;5060194;28;20044;-59
2022/10/24 05:30:20;;;;;;;5.93;1.75;;;14.80;99.90;;;;;;5040486;28;20897;-59
2022/10/24 05:32:46;;;;;;;5.57;1.65;;;14.80;99.90;;;;;;5042297;28;20041;-59
2022/10/24 05:35:12;;;;;;;6.20;1.70;;;14.90;99.90;;;;;;5059194;28;20043;-59
2022/10/24 05:37:38;;;;;;;4.88;1.60;;;15.60;99.90;;;;;;5057383;28;20041;-59
2022/10/24 05:40:09;;;;;;;8.95;2.00;;;14.90;99.90;;;;;;5058369;28;20040;-59
2022/10/24 05:42:37;;;;;;;8.32;1.60;;;14.90;99.90;;;;;;5051527;28;20071;-59
2022/10/24 05:45:04;;;;;;;4.57;1.70;;;14.90;99.90;;;;;;5046539;28;20064;-59
2022/10/24 05:47:30;;;;;;;7.45;1.70;;;14.90;99.90;;;;;;5041883;28;20099;-59
2022/10/24 05:49:56;;;;;;;8.30;1.55;;;14.90;99.90;;;;;;5045915;28;20086;-59
2022/10/24 05:52:21;;;;;;;13.73;2.17;;;14.90;99.90;;;;;;5043932;28;20063;-59
2022/10/24 05:54:47;;;;;;;6.20;1.50;;;14.90;99.90;;;;;;5070487;28;20579;-59
2022/10/24 05:57:13;;;;;;;11.40;1.80;;;14.90;99.90;;;;;;5052599;28;20428;-59
2022/10/24 05:59:39;;;;;;;5.55;1.92;;;14.90;99.90;;;;;;5063490;28;20047;-59
2022/10/24 06:02:04;;;;;;;9.70;2.42;;;14.90;99.90;;;;;;5063228;28;20403;-59
2022/10/24 06:04:30;;;;;;;7.55;1.50;;;14.90;99.90;;;;;;5073434;28;20036;-59
2022/10/24 06:06:56;;;;;;;4.97;1.42;;;14.90;99.90;;;;;;5059945;28;20043;-59
2022/10/24 06:09:21;;;;;;;7.22;1.60;;;14.90;99.90;;;;;;5050766;28;20116;-59
2022/10/24 06:11:47;;;;;;;9.05;1.67;;;14.90;99.90;;;;;;5037386;28;20499;-59
2022/10/24 06:14:13;;;;;;;6.43;1.95;;;14.90;99.90;;;;;;5041817;28;20101;-59
2022/10/24 06:16:38;;;;;;;8.25;1.52;;;14.90;99.90;;;;;;5038377;28;20033;-58
2022/10/24 06:19:04;;;;;;;7.10;1.70;;;14.90;99.90;;;;;;5044712;28;20033;-58
2022/10/24 06:21:30;;;;;;;6.00;2.00;;;14.80;99.90;;;;;;5035762;28;20037;-59
2022/10/24 06:23:56;;;;;;;9.57;2.17;;;14.90;99.90;;;;;;5040375;28;20376;-58
2022/10/24 06:26:22;;;;;;;6.47;1.77;;;14.90;99.90;;;;;;5036054;28;20031;-58
2022/10/24 06:28:48;;;;;;;8.60;1.77;;;14.90;99.90;;;;;;5018336;28;20045;-59
2022/10/24 06:31:13;;;;;;;11.02;2.20;;;14.90;99.90;;;;;;5031376;28;20049;-58
2022/10/24 06:33:39;;;;;;;5.68;1.40;;;14.90;99.90;;;;;;5037331;28;20328;-59
2022/10/24 06:36:08;;;;;;;5.57;1.52;;;14.90;99.90;;;;;;5034128;28;20087;-59
2022/10/24 06:38:35;;;;;;;6.55;1.45;;;15.00;99.90;;;;;;5044467;28;20127;-59
2022/10/24 06:41:09;;;;;;;8.43;1.85;;;15.00;99.90;;;;;;5034379;28;20047;-59
2022/10/24 06:43:36;;;;;;;10.35;1.98;;;15.00;99.90;;;;;;5048732;28;20048;-59
2022/10/24 06:46:10;;;;;;;10.20;1.52;;;15.00;99.90;;;;;;5031476;28;20036;-59
2022/10/24 06:48:36;;;;;;;8.88;1.33;;;15.10;99.90;;;;;;5021260;28;20560;-59
2022/10/24 06:51:02;;;;;;;6.15;2.00;;;15.10;99.90;;;;;;5027945;28;20102;-59
2022/10/24 06:53:28;;;;;;;9.18;2.08;;;15.10;99.90;;;;;;5056017;28;20036;-59
2022/10/24 06:55:54;;;;;;;7.78;1.48;;;15.10;99.90;;;;;;5038752;28;20042;-60
2022/10/24 06:58:20;;;;;;;5.85;1.67;;;15.10;99.90;;;;;;5031530;28;20087;-59
2022/10/24 07:00:45;;;;;;;11.88;1.60;;;15.20;99.90;;;;;;5019141;28;20147;-58
2022/10/24 07:03:14;;;;;;;10.25;2.08;;;15.20;99.90;;;;;;5039542;28;20067;-58
2022/10/24 07:05:40;;;;;;;5.88;1.65;;;15.20;99.90;;;;;;5051723;28;20468;-59
2022/10/24 07:08:06;;;;;;;7.88;1.80;;;15.20;99.90;;;;;;5042185;28;20120;-59
2022/10/24 07:10:32;;;;;;;8.30;1.38;;;15.30;99.90;;;;;;5044414;28;20109;-57
2022/10/24 07:12:57;;;;;;;9.80;1.80;;;15.50;99.90;;;;;;5053765;28;20025;-59
2022/10/24 07:15:23;;;;;;;7.07;1.40;;;15.30;99.90;;;;;;5046908;28;20040;-59
2022/10/24 07:17:49;;;;;;;4.95;1.42;;;15.30;99.90;;;;;;5046558;28;20105;-59
2022/10/24 07:20:14;;;;;;;6.72;1.65;;;15.30;99.90;;;;;;5052946;28;20040;-59
2022/10/24 07:22:41;;;;;;;6.22;1.40;;;15.30;99.90;;;;;;5053404;28;20041;-59
2022/10/24 07:25:07;;;;;;;8.68;1.50;;;15.30;99.90;;;;;;5015586;28;20037;-59
2022/10/24 07:27:33;;;;;;;6.03;1.50;;;15.30;99.90;;;;;;5057689;28;20041;-59
2022/10/24 07:29:59;;;;;;;7.28;1.40;;;15.40;99.90;;;;;;5058668;28;20033;-59
2022/10/24 07:32:25;;;;;;;6.40;1.30;;;15.40;99.90;;;;;;5038776;28;20408;-58
2022/10/24 07:34:50;;;;;;;8.00;1.60;;;15.40;99.90;;;;;;5048564;28;20048;-58
2022/10/24 07:37:17;;;;;;;5.55;1.23;;;15.50;99.90;;;;;;5028582;28;20048;-59
2022/10/24 07:39:45;;;;;;;6.05;1.42;;;15.50;99.90;;;;;;5055353;28;20045;-58
2022/10/24 07:42:12;;;;;;;6.20;1.48;;;15.50;99.90;;;;;;5042876;28;20040;-59
2022/10/24 07:44:38;;;;;;;5.65;1.45;;;14.90;99.90;;;;;;5057634;28;20394;-59
2022/10/24 07:47:06;;;;;;;6.28;1.60;;;15.50;99.90;;;;;;5051242;28;20040;-58
2022/10/24 07:49:32;;;;;;;7.43;1.30;;;15.50;99.90;;;;;;5059944;28;20028;-59
2022/10/24 07:51:58;;;;;;;8.00;1.90;;;15.60;99.90;;;;;;5060751;28;20037;-58
2022/10/24 07:54:25;;;;;;;12.05;1.55;;;15.60;99.90;;;;;;5071310;28;20462;-59
2022/10/24 07:56:51;;;;;;;7.35;1.58;;;15.60;99.90;;;;;;5043889;28;20043;-59
2022/10/24 07:59:16;;;;;;;9.32;1.45;;;15.70;99.90;;;;;;5053785;28;20032;-59
2022/10/24 08:01:42;;;;;;;6.43;1.88;;;15.60;99.90;;;;;;5069225;28;20503;-59
2022/10/24 08:04:10;;;;;;;8.05;1.60;;;15.60;99.90;;;;;;5062381;28;20415;-59
2022/10/24 08:06:35;;;;;;;6.15;1.58;;;15.60;99.90;;;;;;5060658;28;20043;-59
2022/10/24 08:09:02;;;;;;;5.68;1.20;;;15.70;99.90;;;;;;5062402;28;20037;-59
2022/10/24 08:11:29;;;;;;;5.05;1.15;;;15.70;99.90;;;;;;5045119;28;20048;-59
2022/10/24 08:13:58;;;;;;;6.40;1.60;;;15.70;99.90;;;;;;5028107;28;20395;-58
2022/10/24 08:16:24;;;;;;;10.82;1.60;;;15.70;99.90;;;;;;5055996;28;20052;-58
2022/10/24 08:18:53;;;;;;;8.23;1.58;;;15.80;99.90;;;;;;5049932;28;20048;-59
2022/10/24 08:21:20;;;;;;;9.88;2.15;;;15.90;99.90;;;;;;5053675;28;20403;-58
2022/10/24 08:23:48;;;;;;;11.55;1.65;;;16.00;99.90;;;;;;5072539;28;20071;-58
2022/10/24 08:26:17;;;;;;;5.68;1.42;;;16.00;99.90;;;;;;5064842;28;20040;-59
2022/10/24 08:28:45;;;;;;;6.68;1.20;;;16.00;99.90;;;;;;5060937;28;20048;-60
2022/10/24 08:31:13;;;;;;;7.00;1.27;;;16.10;99.90;;;;;;5056609;28;20041;-60
2022/10/24 08:33:40;;;;;;;6.95;1.33;;;16.10;99.90;;;;;;5035241;28;20040;-60
2022/10/24 08:36:21;;;;;;;5.65;1.73;;;16.10;99.90;;;;;;5026136;28;20094;-58
2022/10/24 08:38:47;;;;;;;5.93;1.70;;;16.10;99.90;;;;;;5069500;22;20489;-66
2022/10/24 08:41:23;;;;;;;7.20;1.50;;;16.10;99.90;;;;;;5043198;28;20132;-67
2022/10/24 08:43:52;;;;;;;4.18;1.50;;;16.10;99.90;;;;;;5037394;28;20053;-64
2022/10/24 08:46:26;;;;;;;8.98;1.95;;;16.10;99.90;;;;;;5060516;28;20124;-64
2022/10/24 08:49:01;;;;;;;6.80;1.25;;;16.20;99.90;;;;;;5024182;28;20033;-64
2022/10/24 08:51:51;;;;;;;9.50;1.52;;;16.20;99.90;;;;;;5039674;28;20032;-66
2022/10/24 08:54:22;;;;;;;5.32;1.50;;;16.30;99.90;;;;;;5024593;28;20040;-66
2022/10/24 08:56:50;;;;;;;6.95;1.55;;;16.30;99.90;;;;;;5045798;28;20044;-66
2022/10/24 08:59:16;;;;;;;5.50;1.50;;;16.30;99.90;;;;;;5054749;28;20041;-64
2022/10/24 09:01:57;;;;;;;6.13;1.65;;;16.30;99.90;;;;;;5063414;28;20048;-67
2022/10/24 09:04:28;;;;;;;9.38;1.77;;;16.30;99.90;;;;;;5028989;28;20040;-66
2022/10/24 09:06:54;;;;;;;8.10;1.48;;;16.40;99.90;;;;;;5029032;28;20049;-67
2022/10/24 09:09:26;;;;;;;6.38;1.45;;;16.40;99.90;;;;;;5024327;28;20067;-66
2022/10/24 09:12:07;;;;;;;8.70;2.45;;;16.50;99.90;;;;;;5035274;28;20048;-66
2022/10/24 09:14:36;;;;;;;7.07;1.27;;;16.50;99.90;;;;;;5021892;28;20067;-67
2022/10/24 09:17:10;;;;;;;4.95;1.15;;;16.60;99.90;;;;;;5021907;28;20406;-67
2022/10/24 09:19:37;;;;;;;5.90;1.65;;;16.60;99.90;;;;;;5004101;28;20506;-64
2022/10/24 09:22:05;;;;;;;4.93;1.48;;;16.60;99.90;;;;;;5028998;28;20139;-66
2022/10/24 09:25:00;;;;;;;8.68;1.70;;;16.60;99.90;;;;;;5033580;28;20375;-64
2022/10/24 09:27:33;;;;;;;6.80;1.42;;;16.60;99.90;;;;;;5012458;28;20047;-64
2022/10/24 09:29:59;;;;;;;7.30;1.58;;;16.50;99.90;;;;;;5030070;28;20051;-64
2022/10/24 09:32:31;;;;;;;6.53;1.60;;;16.50;99.90;;;;;;5016447;28;20040;-63
2022/10/24 09:35:04;;;;;;;5.28;1.20;;;16.50;99.90;;;;;;5044266;28;20395;-64
2022/10/24 09:37:31;;;;;;;7.38;1.45;;;16.40;99.90;;;;;;5027605;28;20048;-63
2022/10/24 09:40:20;;;;;;;6.35;1.25;;;16.40;99.90;;;;;;5047706;28;20131;-66
2022/10/24 09:42:48;;;;;;;9.90;2.13;;;16.30;99.90;;;;;;5030557;28;20037;-65
2022/10/24 09:45:26;;;;;;;7.72;1.63;;;16.20;99.90;;;;;;5009463;28;20072;-65
2022/10/24 09:48:03;;;;;;;6.20;1.58;;;16.20;99.90;;;;;;5027800;28;20044;-64
2022/10/24 09:50:33;;;;;;;8.88;1.80;;;16.20;99.90;;;;;;5063891;28;20029;-64
2022/10/24 09:53:00;;;;;;;10.20;1.83;;;16.10;99.90;;;;;;5025880;28;20048;-67
2022/10/24 09:55:30;;;;;;;6.55;1.45;;;16.10;99.90;;;;;;5031676;28;20414;-65
2022/10/24 09:58:02;;;;;;;6.25;1.52;;;16.10;99.90;;;;;;5040525;28;20052;-63
2022/10/24 10:00:34;;;;;;;11.07;1.50;;;16.10;99.90;;;;;;5028055;28;20127;-64
2022/10/24 10:03:03;;;;;;;6.43;1.58;;;16.10;99.90;;;;;;5036246;28;20052;-62
2022/10/24 10:05:46;;;;;;;5.57;1.52;;;16.10;99.90;;;;;;5047637;28;20173;-63
2022/10/24 10:08:23;;;;;;;10.02;1.60;;;16.10;99.90;;;;;;5040153;28;20068;-67
2022/10/24 10:11:11;;;;;;;7.50;1.42;;;16.00;99.90;;;;;;5046389;28;20045;-66
2022/10/24 10:13:49;;;;;;;9.73;2.20;;;15.90;99.90;;;;;;5023456;28;20506;-64
2022/10/24 10:16:36;;;;;;;12.07;1.80;;;15.80;99.90;;;;;;5019807;28;20059;-66
2022/10/24 10:19:19;;;;;;;6.97;1.70;;;15.70;99.90;;;;;;5042359;28;20571;-67
2022/10/24 10:21:58;;;;;;;6.53;1.55;;;15.90;99.90;;;;;;5033895;28;20040;-64
2022/10/24 10:24:36;;;;;;;9.52;1.83;;;16.20;99.90;;;;;;5039117;28;20047;-63
2022/10/24 10:27:39;;;;;;;9.80;1.95;;;16.50;99.90;;;;;;5040849;28;20048;-64
2022/10/24 10:30:11;;;;;;;8.35;1.75;;;16.70;99.90;;;;;;5036956;28;20323;-63
2022/10/24 10:32:52;;;;;;;11.73;1.63;;;16.80;99.90;;;;;;5038147;28;20040;-63
2022/10/24 10:35:47;;;;;;;10.18;1.83;;;16.90;99.90;;;;;;5050582;28;20487;-67
2022/10/24 10:38:51;;;;;;;12.68;1.95;;;16.90;99.90;;;;;;5041667;28;20048;-64
2022/10/24 10:41:33;;;;;;;8.93;2.00;;;17.00;99.90;;;;;;5025903;28;20226;-64
2022/10/24 10:44:14;;;;;;;9.10;1.50;;;16.90;99.90;;;;;;5020096;28;20131;-67
2022/10/24 10:46:46;;;;;;;10.10;1.90;;;16.80;99.90;;;;;;5042179;28;20491;-63
2022/10/24 10:49:38;;;;;;;10.48;2.08;;;16.70;99.90;;;;;;5051855;28;20056;-65
2022/10/24 10:52:30;;;;;;;12.07;2.63;;;16.90;99.90;;;;;;5027305;28;20044;-67
2022/10/24 10:54:59;;;;;;;12.15;2.60;;;16.90;99.90;;;;;;5025723;28;20064;-63
2022/10/24 10:57:37;;;;;;;10.52;1.98;;;16.80;99.90;;;;;;5023037;28;20072;-62
2022/10/24 11:00:08;;;;;;;8.05;2.03;;;16.80;99.90;;;;;;5021259;28;20164;-67
2022/10/24 11:03:08;;;;;;;6.75;1.60;;;17.30;99.90;;;;;;5021864;28;20056;-66
2022/10/24 11:05:43;;;;;;;10.52;2.47;;;16.80;99.90;;;;;;5023377;28;20251;-66
2022/10/24 11:08:27;;;;;;;11.77;2.22;;;17.10;99.90;;;;;;5036461;28;20036;-64
2022/10/24 11:10:59;;;;;;;7.60;2.17;;;17.40;99.90;;;;;;5037637;28;20491;-64
2022/10/24 11:13:48;;;;;;;7.47;1.55;;;17.40;99.90;;;;;;5042920;28;20127;-65
2022/10/24 11:16:20;;;;;;;10.32;2.10;;;17.30;99.90;;;;;;5028178;28;20052;-65
2022/10/24 11:18:49;;;;;;;11.15;2.15;;;17.50;99.90;;;;;;5046111;28;20110;-65
2022/10/24 11:21:20;;;;;;;8.93;2.17;;;17.60;99.90;;;;;;5025148;28;20077;-66
2022/10/24 11:23:51;;;;;;;12.73;2.08;;;17.70;99.90;;;;;;5031319;28;20044;-67
2022/10/24 11:26:30;;;;;;;10.07;2.00;;;17.80;99.90;;;;;;5032317;28;20064;-66
2022/10/24 11:29:34;;;;;;;10.30;2.10;;;17.80;99.90;;;;;;5026991;28;20044;-65
2022/10/24 11:32:10;;;;;;;9.18;2.15;;;17.80;99.90;;;;;;5044721;28;20105;-64
2022/10/24 11:34:41;;;;;;;9.75;2.05;;;17.80;99.90;;;;;;5044439;28;20068;-65
2022/10/24 11:37:18;;;;;;;16.38;2.70;;;17.60;99.90;;;;;;5020066;28;20312;-68
2022/10/24 11:39:56;;;;;;;8.55;1.75;;;17.60;99.90;;;;;;5037017;28;20051;-66
2022/10/24 11:42:52;;;;;;;14.00;2.72;;;17.60;99.90;;;;;;5002741;28;20171;-69
2022/10/24 11:45:23;;;;;;;11.10;3.15;;;17.70;99.90;;;;;;5021792;28;20218;-65
2022/10/24 11:47:58;;;;;;;12.50;3.22;;;17.80;99.90;;;;;;5028121;28;20036;-64
2022/10/24 11:50:26;;;;;;;8.88;2.30;;;17.90;99.90;;;;;;5031833;28;20044;-65
2022/10/24 11:53:01;;;;;;;12.40;2.58;;;17.90;99.90;;;;;;5019086;28;20041;-65
2022/10/24 11:55:36;;;;;;;9.82;2.20;;;17.80;99.90;;;;;;5055436;28;20101;-66
2022/10/24 11:58:04;;;;;;;10.23;3.20;;;17.60;99.90;;;;;;5042994;28;20458;-65
2022/10/24 12:00:38;;;;;;;14.00;2.85;;;17.50;99.90;;;;;;5043978;28;20040;-63
2022/10/24 12:03:34;;;;;;;10.38;2.10;;;17.30;99.90;;;;;;5045388;28;20368;-64
2022/10/24 12:06:31;;;;;;;14.98;2.55;;;17.10;99.90;;;;;;5046951;28;20347;-64
2022/10/24 12:09:18;;;;;;;8.88;2.30;;;16.90;99.90;;;;;;5056424;28;20132;-65
2022/10/24 12:11:55;;;;;;;10.82;2.38;;;16.70;99.90;;;;;;5041859;28;20044;-65
2022/10/24 12:14:52;;;;;;;12.75;2.67;;;16.70;99.90;;;;;;5055115;28;20048;-64
2022/10/24 12:17:30;;;;;;;8.40;1.70;;;16.60;99.90;;;;;;5022712;28;20045;-66
2022/10/24 12:19:58;;;;;;;12.18;3.00;;;16.60;99.90;;;;;;5060247;28;20167;-66
2022/10/24 12:22:32;;;;;;;12.20;2.50;;;16.60;99.90;;;;;;5059555;28;20044;-64
2022/10/24 12:25:15;;;;;;;10.32;2.63;;;16.50;99.90;;;;;;5036822;28;20398;-64
2022/10/24 12:27:42;;;;;;;8.05;1.73;;;16.60;99.90;;;;;;5056145;28;20068;-65
2022/10/24 12:30:07;;;;;;;9.13;1.92;;;16.90;99.90;;;;;;5054680;28;20029;-63
2022/10/24 12:32:43;;;;;;;13.93;2.75;;;17.00;99.90;;;;;;5042278;28;20086;-65
2022/10/24 12:35:43;;;;;;;12.82;2.00;;;17.00;99.90;;;;;;5053887;28;20044;-63
2022/10/24 12:38:36;;;;;;;13.07;3.38;;;16.80;99.90;;;;;;5039895;28;20060;-63
2022/10/24 12:41:08;;;;;;;14.75;2.40;;;16.70;99.90;;;;;;5043877;28;20143;-64
2022/10/24 12:44:15;;;;;;;12.63;1.95;;;16.70;99.90;;;;;;5060400;28;20051;-66
2022/10/24 12:46:41;;;;;;;13.48;2.00;;;16.60;99.90;;;;;;5039247;28;20044;-64
2022/10/24 12:49:15;;;;;;;11.00;2.20;;;16.50;99.90;;;;;;5062411;28;20518;-64
2022/10/24 12:51:41;;;;;;;14.63;3.92;;;16.50;99.90;;;;;;5019949;28;20072;-64
2022/10/24 12:54:12;;;;;;;10.77;2.47;;;16.50;99.90;;;;;;5060841;28;20462;-64
2022/10/24 12:56:50;;;;;;;11.82;2.50;;;16.40;99.90;;;;;;5056067;28;20044;-64
2022/10/24 12:59:18;;;;;;;8.90;2.78;;;16.40;99.90;;;;;;5060911;28;20055;-64
2022/10/24 13:01:46;;;;;;;12.35;2.10;;;16.40;99.90;;;;;;5055260;28;20094;-64
2022/10/24 13:04:36;;;;;;;10.90;2.15;;;16.40;99.90;;;;;;5028763;28;20410;-64
2022/10/24 13:07:20;;;;;;;10.60;2.55;;;16.30;99.90;;;;;;5039183;28;20109;-64